createdAt,value
2022-09-14T00:00:25.209Z,16.94
2022-09-14T00:03:12.014Z,16.98
2022-09-14T00:06:06.943Z,16.92
2022-09-14T00:08:56.037Z,17.03
2022-09-14T00:11:42.291Z,17.04
2022-09-14T00:14:28.734Z,17.03
2022-09-14T00:17:15.341Z,17.09
2022-09-14T00:20:02.320Z,17.07
2022-09-14T00:22:48.613Z,17.09
2022-09-14T00:25:35.130Z,17.06
2022-09-14T00:28:21.471Z,17.02
2022-09-14T00:31:08.804Z,17.11
2022-09-14T00:33:55.028Z,17.23
2022-09-14T00:36:44.886Z,17.06
2022-09-14T00:39:31.312Z,17.27
2022-09-14T00:42:19.489Z,17.10
2022-09-14T00:45:14.735Z,17.41
2022-09-14T00:48:01.046Z,17.33
2022-09-14T00:50:47.451Z,17.18
2022-09-14T00:53:33.586Z,17.32
2022-09-14T00:56:19.989Z,17.40
2022-09-14T00:59:13.007Z,17.33
2022-09-14T01:01:59.688Z,17.31
2022-09-14T01:04:46.909Z,17.33
2022-09-14T01:07:48.229Z,17.18
2022-09-14T01:10:50.316Z,17.19
2022-09-14T01:13:41.802Z,17.29
2022-09-14T01:16:47.946Z,17.41
2022-09-14T01:20:06.109Z,17.42
2022-09-14T01:23:17.193Z,17.30
2022-09-14T01:26:32.590Z,17.19
2022-09-14T01:29:23.624Z,17.38
2022-09-14T01:32:29.027Z,17.30
2022-09-14T01:35:27.155Z,17.30
2022-09-14T01:38:31.336Z,17.27
2022-09-14T01:41:23.907Z,17.15
2022-09-14T01:44:16.905Z,17.37
2022-09-14T01:47:17.671Z,17.22
2022-09-14T01:50:10.632Z,17.10
2022-09-14T01:53:07.706Z,16.99
2022-09-14T01:56:20.311Z,17.02
2022-09-14T01:59:36.344Z,17.09
2022-09-14T02:02:29.618Z,17.09
2022-09-14T02:05:28.999Z,17.01
2022-09-14T02:08:15.833Z,17.08
2022-09-14T02:11:02.569Z,16.75
2022-09-14T02:13:48.990Z,16.95
2022-09-14T02:16:35.937Z,16.81
2022-09-14T02:19:24.318Z,16.76
2022-09-14T02:22:10.942Z,16.60
2022-09-14T02:24:57.876Z,16.52
2022-09-14T02:27:44.115Z,16.34
2022-09-14T02:30:43.009Z,16.50
2022-09-14T02:33:56.619Z,16.58
2022-09-14T02:37:15.382Z,16.54
2022-09-14T02:40:07.987Z,16.27
2022-09-14T02:43:12.664Z,16.42
2022-09-14T02:46:14.191Z,16.44
2022-09-14T02:49:15.192Z,16.34
2022-09-14T02:52:13.078Z,16.31
2022-09-14T02:55:05.903Z,16.29
2022-09-14T02:58:13.233Z,16.31
2022-09-14T03:00:59.395Z,16.22
2022-09-14T03:03:45.857Z,16.15
2022-09-14T03:06:32.636Z,16.09
2022-09-14T03:09:19.183Z,15.98
2022-09-14T03:12:05.389Z,16.07
2022-09-14T03:14:51.478Z,16.03
2022-09-14T03:17:38.166Z,16.17
2022-09-14T03:20:29.058Z,16.03
2022-09-14T03:23:15.234Z,16.15
2022-09-14T03:26:01.471Z,16.12
2022-09-14T03:28:52.423Z,16.21
2022-09-14T03:31:38.626Z,15.92
2022-09-14T03:34:25.178Z,16.16
2022-09-14T03:37:11.658Z,15.99
2022-09-14T03:39:57.881Z,16.22
2022-09-14T03:42:46.566Z,16.17
2022-09-14T03:45:33.039Z,16.26
2022-09-14T03:48:19.385Z,16.15
2022-09-14T03:51:07.735Z,16.32
2022-09-14T03:53:54.447Z,16.22
2022-09-14T03:56:40.645Z,16.24
2022-09-14T03:59:26.833Z,16.32
2022-09-14T04:02:13.723Z,16.11
2022-09-14T04:05:00.229Z,16.27
2022-09-14T04:07:46.330Z,16.33
2022-09-14T04:10:32.901Z,16.31
2022-09-14T04:13:19.497Z,16.29
2022-09-14T04:16:06.174Z,16.21
2022-09-14T04:18:53.182Z,16.46
2022-09-14T04:21:39.466Z,16.41
2022-09-14T04:24:30.085Z,16.57
2022-09-14T04:27:17.143Z,16.51
2022-09-14T04:30:05.653Z,16.44
2022-09-14T04:32:53.962Z,16.49
2022-09-14T04:35:40.424Z,16.36
2022-09-14T04:38:26.989Z,16.46
2022-09-14T04:41:18.319Z,16.58
2022-09-14T04:44:04.418Z,16.46
2022-09-14T04:46:50.639Z,16.39
2022-09-14T04:49:36.915Z,16.32
2022-09-14T04:52:24.565Z,16.32
2022-09-14T04:55:11.119Z,16.38
2022-09-14T04:57:57.673Z,16.38
2022-09-14T05:00:43.814Z,16.39
2022-09-14T05:03:30.379Z,16.36
2022-09-14T05:06:19.788Z,16.43
2022-09-14T05:09:13.589Z,16.52
2022-09-14T05:11:59.813Z,16.41
2022-09-14T05:14:46.551Z,16.52
2022-09-14T05:17:35.867Z,16.31
2022-09-14T05:20:22.361Z,16.50
2022-09-14T05:23:08.428Z,16.60
2022-09-14T05:25:55.006Z,16.74
2022-09-14T05:28:41.527Z,16.60
2022-09-14T05:31:29.835Z,16.72
2022-09-14T05:34:16.117Z,16.55
2022-09-14T05:37:02.294Z,16.49
2022-09-14T05:39:48.434Z,16.63
2022-09-14T05:42:35.703Z,16.70
2022-09-14T05:45:22.182Z,16.62
2022-09-14T05:48:08.666Z,16.72
2022-09-14T05:51:02.447Z,16.73
2022-09-14T05:53:56.882Z,16.89
2022-09-14T05:56:43.186Z,16.80
2022-09-14T05:59:31.590Z,16.81
2022-09-14T06:02:18.411Z,16.88
2022-09-14T06:05:05.258Z,16.85
2022-09-14T06:07:53.070Z,16.80
2022-09-14T06:10:39.522Z,16.96
2022-09-14T06:13:26.065Z,16.90
2022-09-14T06:16:14.853Z,17.21
2022-09-14T06:19:01.162Z,17.10
2022-09-14T06:21:47.338Z,17.20
2022-09-14T06:24:33.723Z,17.46
2022-09-14T06:27:19.871Z,17.69
2022-09-14T06:30:07.049Z,17.86
2022-09-14T06:32:53.243Z,17.93
2022-09-14T06:35:40.981Z,18.04
2022-09-14T06:38:28.253Z,18.04
2022-09-14T06:41:18.102Z,17.98
2022-09-14T06:44:04.610Z,17.93
2022-09-14T06:46:50.828Z,18.21
2022-09-14T06:49:37.062Z,18.37
2022-09-14T06:52:23.313Z,18.39
2022-09-14T06:55:09.766Z,18.37
2022-09-14T06:57:56.068Z,18.56
2022-09-14T07:00:42.683Z,18.51
2022-09-14T07:03:28.985Z,18.84
2022-09-14T07:06:18.019Z,18.81
2022-09-14T07:09:05.220Z,18.97
2022-09-14T07:11:51.498Z,19.12
2022-09-14T07:14:38.349Z,19.12
2022-09-14T07:17:24.520Z,19.26
2022-09-14T07:20:11.281Z,19.53
2022-09-14T07:22:57.720Z,19.58
2022-09-14T07:25:44.272Z,19.51
2022-09-14T07:28:33.089Z,19.49
2022-09-14T07:31:32.132Z,19.65
2022-09-14T07:34:18.990Z,19.59
2022-09-14T07:37:05.395Z,19.71
2022-09-14T07:39:51.528Z,19.71
2022-09-14T07:42:38.513Z,19.44
2022-09-14T07:45:25.081Z,19.45
2022-09-14T07:48:11.559Z,19.40
2022-09-14T07:51:11.389Z,19.57
2022-09-14T07:54:00.807Z,19.66
2022-09-14T07:56:47.386Z,19.84
2022-09-14T07:59:36.621Z,19.93
2022-09-14T08:02:24.369Z,20.07
2022-09-14T08:05:11.133Z,20.03
2022-09-14T08:07:57.199Z,19.98
2022-09-14T08:10:43.480Z,20.42
2022-09-14T08:13:30.854Z,20.56
2022-09-14T08:16:19.179Z,20.39
2022-09-14T08:19:10.732Z,20.53
2022-09-14T08:21:56.838Z,20.57
2022-09-14T08:24:43.674Z,20.57
2022-09-14T08:27:29.951Z,20.71
2022-09-14T08:30:16.465Z,20.81
2022-09-14T08:33:02.597Z,20.82
2022-09-14T08:36:03.923Z,21.10
2022-09-14T08:38:50.785Z,21.01
2022-09-14T08:41:43.042Z,21.03
2022-09-14T08:44:41.683Z,21.04
2022-09-14T08:47:29.632Z,21.13
2022-09-14T08:50:19.283Z,21.29
2022-09-14T08:53:05.673Z,21.29
2022-09-14T08:55:59.572Z,21.48
2022-09-14T08:58:49.917Z,21.61
2022-09-14T09:01:45.402Z,21.90
2022-09-14T09:05:19.765Z,22.11
2022-09-14T09:08:36.614Z,22.19
2022-09-14T09:11:26.237Z,22.32
2022-09-14T09:14:38.693Z,22.44
2022-09-14T09:17:35.966Z,22.70
2022-09-14T09:20:50.374Z,22.65
2022-09-14T09:23:37.151Z,22.86
2022-09-14T09:26:28.970Z,22.96
2022-09-14T09:29:15.014Z,22.85
2022-09-14T09:32:23.869Z,22.86
2022-09-14T09:35:45.858Z,22.88
2022-09-14T09:38:38.054Z,23.14
2022-09-14T09:41:27.795Z,23.26
2022-09-14T09:44:14.983Z,23.51
2022-09-14T09:47:02.421Z,23.70
2022-09-14T09:49:58.672Z,23.86
2022-09-14T09:52:57.565Z,24.14
2022-09-14T09:55:48.829Z,24.25
2022-09-14T09:58:38.698Z,24.46
2022-09-14T10:01:31.113Z,24.57
2022-09-14T10:04:30.070Z,24.73
2022-09-14T10:07:22.002Z,24.78
2022-09-14T10:10:09.662Z,24.83
2022-09-14T10:12:56.942Z,24.74
2022-09-14T10:15:43.558Z,24.69
2022-09-14T10:18:30.375Z,24.50
2022-09-14T10:21:22.014Z,24.33
2022-09-14T10:24:20.450Z,24.37
2022-09-14T10:27:41.330Z,24.58
2022-09-14T10:30:34.501Z,24.52
2022-09-14T10:33:21.114Z,24.40
2022-09-14T10:36:33.286Z,24.73
2022-09-14T10:39:26.591Z,24.75
2022-09-14T10:42:22.147Z,24.98
2022-09-14T10:45:19.136Z,25.13
2022-09-14T10:48:25.241Z,25.12
2022-09-14T10:51:45.699Z,25.32
2022-09-14T10:54:50.281Z,25.38
2022-09-14T10:57:49.025Z,25.43
2022-09-14T11:01:06.943Z,25.52
2022-09-14T11:04:15.246Z,25.78
2022-09-14T11:07:08.005Z,25.72
2022-09-14T11:10:18.821Z,25.41
2022-09-14T11:13:10.861Z,25.48
2022-09-14T11:16:10.200Z,25.60
2022-09-14T11:19:28.380Z,25.51
2022-09-14T11:22:28.065Z,25.59
2022-09-14T11:25:23.019Z,25.59
2022-09-14T11:28:21.693Z,25.20
2022-09-14T11:31:17.148Z,25.50
2022-09-14T11:34:29.629Z,25.42
2022-09-14T11:37:21.344Z,25.38
2022-09-14T11:40:40.062Z,25.61
2022-09-14T11:43:45.846Z,25.54
2022-09-14T11:46:39.875Z,25.40
2022-09-14T11:49:39.909Z,25.70
2022-09-14T11:52:28.908Z,26.03
2022-09-14T11:55:17.601Z,25.89
2022-09-14T11:58:07.733Z,26.00
2022-09-14T12:01:29.948Z,26.01
2022-09-14T12:04:17.615Z,25.95
2022-09-14T12:07:03.894Z,25.67
2022-09-14T12:09:51.519Z,25.99
2022-09-14T12:12:38.928Z,25.82
2022-09-14T12:15:25.982Z,25.94
2022-09-14T12:18:13.267Z,25.65
2022-09-14T12:21:01.927Z,25.37
2022-09-14T12:23:52.337Z,25.16
2022-09-14T12:26:39.096Z,24.91
2022-09-14T12:29:29.171Z,24.83
2022-09-14T12:32:40.123Z,24.61
2022-09-14T12:35:32.578Z,24.45
2022-09-14T12:38:31.469Z,24.14
2022-09-14T12:41:20.715Z,23.93
2022-09-14T12:44:40.353Z,23.54
2022-09-14T12:47:28.459Z,23.38
2022-09-14T12:50:20.770Z,23.14
2022-09-14T12:53:21.526Z,22.96
2022-09-14T12:56:18.742Z,22.95
2022-09-14T12:59:15.180Z,22.79
2022-09-14T13:02:35.549Z,21.42
2022-09-14T13:05:28.944Z,20.67
2022-09-14T13:08:22.312Z,20.34
2022-09-14T13:11:09.274Z,19.64
2022-09-14T13:13:56.249Z,19.49
2022-09-14T13:16:44.607Z,19.45
2022-09-14T13:19:33.484Z,19.30
2022-09-14T13:22:22.910Z,19.16
2022-09-14T13:25:29.513Z,19.03
2022-09-14T13:28:18.529Z,19.21
2022-09-14T13:31:05.486Z,19.41
2022-09-14T13:33:54.590Z,19.44
2022-09-14T13:36:43.445Z,19.33
2022-09-14T13:39:33.987Z,19.31
2022-09-14T13:42:22.284Z,19.39
2022-09-14T13:45:12.797Z,19.42
2022-09-14T13:47:59.496Z,19.37
2022-09-14T13:50:49.726Z,19.49
2022-09-14T13:53:51.772Z,19.60
2022-09-14T13:56:37.846Z,19.43
2022-09-14T13:59:24.306Z,19.48
2022-09-14T14:02:14.005Z,19.44
2022-09-14T14:05:01.095Z,19.50
2022-09-14T14:07:47.328Z,19.53
2022-09-14T14:10:39.822Z,19.48
2022-09-14T14:13:32.462Z,19.70
2022-09-14T14:16:24.440Z,19.76
2022-09-14T14:19:30.966Z,19.54
2022-09-14T14:22:25.846Z,19.52
2022-09-14T14:25:20.231Z,19.74
2022-09-14T14:28:25.864Z,19.63
2022-09-14T14:31:15.752Z,19.81
2022-09-14T14:34:18.961Z,19.84
2022-09-14T14:37:05.560Z,19.91
2022-09-14T14:39:51.722Z,19.95
2022-09-14T14:42:38.673Z,19.84
2022-09-14T14:45:27.201Z,19.85
2022-09-14T14:48:13.420Z,19.86
2022-09-14T14:50:59.517Z,19.63
2022-09-14T14:53:46.155Z,19.76
2022-09-14T14:56:32.830Z,19.72
2022-09-14T14:59:21.941Z,19.62
2022-09-14T15:02:09.224Z,19.54
2022-09-14T15:04:55.378Z,19.16
2022-09-14T15:07:42.014Z,19.49
2022-09-14T15:10:29.462Z,19.32
2022-09-14T15:13:15.879Z,19.33
2022-09-14T15:16:02.533Z,19.14
2022-09-14T15:18:49.117Z,19.17
2022-09-14T15:21:35.380Z,19.08
2022-09-14T15:24:21.728Z,18.89
2022-09-14T15:27:08.145Z,18.95
2022-09-14T15:29:54.388Z,19.18
2022-09-14T15:32:40.998Z,18.96
2022-09-14T15:35:27.552Z,19.01
2022-09-14T15:38:13.797Z,19.22
2022-09-14T15:40:59.946Z,19.26
2022-09-14T15:43:46.308Z,19.39
2022-09-14T15:46:33.014Z,19.34
2022-09-14T15:49:24.129Z,19.50
2022-09-14T15:52:11.774Z,19.17
2022-09-14T15:54:58.073Z,19.21
2022-09-14T15:57:44.695Z,19.29
2022-09-14T16:00:31.537Z,19.46
2022-09-14T16:03:18.629Z,19.35
2022-09-14T16:06:05.278Z,19.23
2022-09-14T16:08:52.019Z,19.40
2022-09-14T16:11:39.306Z,19.30
2022-09-14T16:14:25.725Z,19.22
2022-09-14T16:17:11.972Z,19.43
2022-09-14T16:19:58.211Z,19.06
2022-09-14T16:22:44.580Z,18.98
2022-09-14T16:25:31.093Z,18.82
2022-09-14T16:28:17.319Z,18.92
2022-09-14T16:31:14.709Z,19.00
2022-09-14T16:34:07.706Z,19.00
2022-09-14T16:36:55.308Z,18.86
2022-09-14T16:39:41.708Z,18.94
2022-09-14T16:42:27.998Z,18.98
2022-09-14T16:45:14.331Z,18.59
2022-09-14T16:48:00.590Z,18.65
2022-09-14T16:50:52.912Z,18.77
2022-09-14T16:53:41.257Z,18.56
2022-09-14T16:56:33.535Z,18.37
2022-09-14T16:59:20.538Z,18.58
2022-09-14T17:02:09.386Z,18.43
2022-09-14T17:04:55.645Z,18.45
2022-09-14T17:07:41.997Z,18.44
2022-09-14T17:10:28.219Z,18.43
2022-09-14T17:13:14.564Z,18.40
2022-09-14T17:16:12.485Z,18.51
2022-09-14T17:19:01.135Z,18.43
2022-09-14T17:21:48.490Z,18.36
2022-09-14T17:24:34.819Z,18.01
2022-09-14T17:27:21.757Z,18.02
2022-09-14T17:30:08.830Z,17.85
2022-09-14T17:32:55.088Z,18.02
2022-09-14T17:35:47.426Z,18.12
2022-09-14T17:38:37.598Z,18.09
2022-09-14T17:41:25.657Z,17.99
2022-09-14T17:44:14.545Z,18.02
2022-09-14T17:47:01.425Z,17.91
2022-09-14T17:49:48.059Z,17.79
2022-09-14T17:52:35.288Z,17.76
2022-09-14T17:55:21.550Z,17.66
2022-09-14T17:58:08.484Z,17.73
2022-09-14T18:01:14.237Z,17.70
2022-09-14T18:04:04.279Z,17.55
2022-09-14T18:06:50.552Z,17.73
2022-09-14T18:09:37.302Z,17.73
2022-09-14T18:12:24.163Z,17.46
2022-09-14T18:15:15.152Z,17.32
2022-09-14T18:18:01.535Z,17.40
2022-09-14T18:20:47.911Z,17.46
2022-09-14T18:23:35.284Z,17.45
2022-09-14T18:26:23.362Z,17.48
2022-09-14T18:29:14.109Z,17.47
2022-09-14T18:32:00.573Z,17.24
2022-09-14T18:34:46.868Z,17.31
2022-09-14T18:37:33.318Z,17.16
2022-09-14T18:40:20.472Z,17.19
2022-09-14T18:43:07.047Z,17.17
2022-09-14T18:45:53.882Z,17.26
2022-09-14T18:48:43.458Z,17.25
2022-09-14T18:51:31.540Z,17.26
2022-09-14T18:54:18.343Z,17.06
2022-09-14T18:57:04.817Z,17.29
2022-09-14T18:59:51.054Z,16.87
2022-09-14T19:02:38.901Z,17.29
2022-09-14T19:05:26.727Z,17.32
2022-09-14T19:08:13.545Z,17.25
2022-09-14T19:11:11.758Z,17.25
2022-09-14T19:14:10.174Z,17.22
2022-09-14T19:16:58.336Z,17.12
2022-09-14T19:19:44.646Z,16.99
2022-09-14T19:22:30.905Z,16.95
2022-09-14T19:25:18.050Z,16.94
2022-09-14T19:28:04.261Z,16.78
2022-09-14T19:30:50.643Z,16.84
2022-09-14T19:33:38.536Z,16.76
2022-09-14T19:36:27.573Z,16.59
2022-09-14T19:39:14.156Z,16.58
2022-09-14T19:42:00.813Z,16.55
2022-09-14T19:44:46.998Z,16.60
2022-09-14T19:47:33.398Z,16.55
2022-09-14T19:50:19.586Z,16.40
2022-09-14T19:53:05.914Z,16.49
2022-09-14T19:55:51.960Z,16.34
2022-09-14T19:58:40.466Z,16.40
2022-09-14T20:01:28.649Z,16.37
2022-09-14T20:04:15.680Z,16.35
2022-09-14T20:07:02.528Z,16.36
2022-09-14T20:09:48.798Z,16.42
2022-09-14T20:12:35.044Z,16.36
2022-09-14T20:15:21.540Z,16.57
2022-09-14T20:18:08.163Z,16.48
2022-09-14T20:20:54.337Z,16.51
2022-09-14T20:23:57.925Z,16.58
2022-09-14T20:26:50.034Z,16.70
2022-09-14T20:29:36.703Z,16.63
2022-09-14T20:32:25.046Z,16.52
2022-09-14T20:35:11.370Z,16.48
2022-09-14T20:37:57.791Z,16.35
2022-09-14T20:40:44.098Z,16.48
2022-09-14T20:43:32.291Z,16.49
2022-09-14T20:46:24.656Z,16.48
2022-09-14T20:49:13.690Z,16.51
2022-09-14T20:52:02.404Z,16.14
2022-09-14T20:54:48.766Z,16.25
2022-09-14T20:57:35.284Z,16.31
2022-09-14T21:00:21.764Z,16.23
2022-09-14T21:03:09.985Z,16.22
2022-09-14T21:05:59.645Z,16.51
2022-09-14T21:08:46.638Z,16.57
2022-09-14T21:11:33.603Z,16.34
2022-09-14T21:14:21.017Z,16.46
2022-09-14T21:17:07.583Z,16.46
2022-09-14T21:19:54.038Z,16.48
2022-09-14T21:22:40.213Z,16.37
2022-09-14T21:25:26.447Z,16.47
2022-09-14T21:28:13.564Z,16.39
2022-09-14T21:31:20.651Z,16.48
2022-09-14T21:34:09.961Z,16.35
2022-09-14T21:36:56.765Z,16.19
2022-09-14T21:39:43.318Z,16.17
2022-09-14T21:42:29.749Z,16.32
2022-09-14T21:45:16.127Z,16.13
2022-09-14T21:48:02.360Z,16.24
2022-09-14T21:50:48.457Z,16.30
2022-09-14T21:53:35.014Z,16.21
2022-09-14T21:56:23.523Z,16.30
2022-09-14T21:59:12.157Z,16.13
2022-09-14T22:01:58.676Z,16.35
2022-09-14T22:04:45.141Z,16.01
2022-09-14T22:07:31.882Z,15.87
2022-09-14T22:10:18.705Z,16.28
2022-09-14T22:13:05.222Z,16.30
2022-09-14T22:15:51.471Z,16.37
2022-09-14T22:18:39.214Z,16.39
2022-09-14T22:21:28.145Z,16.24
2022-09-14T22:24:18.642Z,16.30
2022-09-14T22:27:07.493Z,16.36
2022-09-14T22:29:53.643Z,16.36
2022-09-14T22:32:40.156Z,16.34
2022-09-14T22:35:26.646Z,16.30
2022-09-14T22:38:13.085Z,16.17
2022-09-14T22:41:11.516Z,16.28
2022-09-14T22:43:57.843Z,16.12
2022-09-14T22:46:44.197Z,16.19
2022-09-14T22:49:30.834Z,16.19
2022-09-14T22:52:16.983Z,16.06
2022-09-14T22:55:03.630Z,16.24
2022-09-14T22:57:50.277Z,16.41
2022-09-14T23:00:38.722Z,16.22
2022-09-14T23:03:25.094Z,16.40
2022-09-14T23:06:12.088Z,16.41
2022-09-14T23:09:00.325Z,16.40
2022-09-14T23:11:46.590Z,16.56
2022-09-14T23:14:32.891Z,16.53
2022-09-14T23:17:19.362Z,16.53
2022-09-14T23:20:06.437Z,16.44
2022-09-14T23:22:53.006Z,16.52
2022-09-14T23:25:41.120Z,16.61
2022-09-14T23:28:27.264Z,16.41
2022-09-14T23:31:13.459Z,16.54
2022-09-14T23:34:01.561Z,16.66
2022-09-14T23:36:47.903Z,16.44
2022-09-14T23:39:34.304Z,16.56
2022-09-14T23:42:20.601Z,16.51
2022-09-14T23:45:07.622Z,16.59
2022-09-14T23:47:53.838Z,16.62
2022-09-14T23:50:40.520Z,16.58
2022-09-14T23:53:27.058Z,16.43
2022-09-14T23:56:14.346Z,16.58
2022-09-14T23:59:00.905Z,16.40
